Terminal Aerodrome Forecast
Issued by NWS Chicago, IL

Home | Current Version | Previous Version | Text Only | Print | Product List | Glossary Off
Versions: 1 2 3 4 5 6 7 8 9 10 11 12 13 14 15 16 17 18 19 20 21 22 23 24

000
FTUS43 KLOT 011135
TAFRFD
TAF
KRFD 011135Z 0112/0212 02005KT 6SM BR BKN010 OVC020
     FM011700 02008KT 6SM -SHRA BR OVC020
     FM012300 02007KT P6SM VCSH OVC018
     FM020400 35005KT 6SM BR OVC008=

USA.gov is the U.S. government's official web portal to all federal, state and local government web resources and services.